sensor_id;sensor_type;location;lat;lon;timestamp;pressure;altitude;pressure_sealevel;temperature;humidity
6132;BME280;3097;42.692;23.278;2023-02-21T00:00:58;95392.81;;;7.36;58.04
6132;BME280;3097;42.692;23.278;2023-02-21T00:03:41;95407.75;;;7.26;58.26
6132;BME280;3097;42.692;23.278;2023-02-21T00:06:25;95400.16;;;7.11;58.56
6132;BME280;3097;42.692;23.278;2023-02-21T00:09:09;95399.56;;;7.16;58.54
6132;BME280;3097;42.692;23.278;2023-02-21T00:11:54;95404.59;;;7.30;58.20
6132;BME280;3097;42.692;23.278;2023-02-21T00:14:38;95393.50;;;7.23;57.91
6132;BME280;3097;42.692;23.278;2023-02-21T00:17:23;95392.75;;;7.29;58.13
6132;BME280;3097;42.692;23.278;2023-02-21T00:20:07;95400.41;;;7.23;58.04
6132;BME280;3097;42.692;23.278;2023-02-21T00:22:51;95382.94;;;7.05;58.43
6132;BME280;3097;42.692;23.278;2023-02-21T00:25:35;95392.59;;;7.03;58.70
6132;BME280;3097;42.692;23.278;2023-02-21T00:28:19;95362.88;;;6.59;59.73
6132;BME280;3097;42.692;23.278;2023-02-21T00:31:04;95381.06;;;6.92;59.03
6132;BME280;3097;42.692;23.278;2023-02-21T00:33:47;95345.06;;;6.73;59.27
6132;BME280;3097;42.692;23.278;2023-02-21T00:36:31;95382.00;;;6.85;59.52
6132;BME280;3097;42.692;23.278;2023-02-21T00:39:15;95376.59;;;6.73;59.82
6132;BME280;3097;42.692;23.278;2023-02-21T00:41:59;95373.84;;;6.75;59.79
6132;BME280;3097;42.692;23.278;2023-02-21T00:44:44;95382.03;;;6.64;60.25
6132;BME280;3097;42.692;23.278;2023-02-21T00:47:28;95382.88;;;6.71;60.11
6132;BME280;3097;42.692;23.278;2023-02-21T00:50:13;95368.75;;;6.53;60.63
6132;BME280;3097;42.692;23.278;2023-02-21T00:52:57;95345.44;;;6.48;60.71
6132;BME280;3097;42.692;23.278;2023-02-21T00:55:41;95350.75;;;6.47;60.93
6132;BME280;3097;42.692;23.278;2023-02-21T00:58:25;95357.72;;;6.53;60.84
6132;BME280;3097;42.692;23.278;2023-02-21T01:01:09;95354.31;;;6.46;60.96
6132;BME280;3097;42.692;23.278;2023-02-21T01:03:53;95348.19;;;6.47;61.39
6132;BME280;3097;42.692;23.278;2023-02-21T01:06:36;95354.09;;;6.47;61.26
6132;BME280;3097;42.692;23.278;2023-02-21T01:09:20;95334.59;;;6.25;61.69
6132;BME280;3097;42.692;23.278;2023-02-21T01:12:04;95339.59;;;6.33;61.57
6132;BME280;3097;42.692;23.278;2023-02-21T01:14:48;95297.00;;;6.04;62.06
6132;BME280;3097;42.692;23.278;2023-02-21T01:17:32;95334.34;;;6.20;62.23
6132;BME280;3097;42.692;23.278;2023-02-21T01:20:16;95323.09;;;6.14;62.50
6132;BME280;3097;42.692;23.278;2023-02-21T01:23:00;95322.63;;;6.32;62.20
6132;BME280;3097;42.692;23.278;2023-02-21T01:25:44;95326.97;;;6.32;61.90
6132;BME280;3097;42.692;23.278;2023-02-21T01:28:28;95326.63;;;6.35;61.97
6132;BME280;3097;42.692;23.278;2023-02-21T01:31:17;95318.31;;;6.33;62.02
6132;BME280;3097;42.692;23.278;2023-02-21T01:34:01;95322.09;;;6.37;61.90
6132;BME280;3097;42.692;23.278;2023-02-21T01:36:45;95314.78;;;6.34;62.00
6132;BME280;3097;42.692;23.278;2023-02-21T01:39:29;95321.53;;;6.41;61.86
6132;BME280;3097;42.692;23.278;2023-02-21T01:42:13;95303.50;;;6.28;62.44
6132;BME280;3097;42.692;23.278;2023-02-21T01:48:08;95320.53;;;6.14;63.11
6132;BME280;3097;42.692;23.278;2023-02-21T01:50:55;95298.75;;;6.04;63.49
6132;BME280;3097;42.692;23.278;2023-02-21T01:53:39;95298.38;;;5.86;64.38
6132;BME280;3097;42.692;23.278;2023-02-21T01:56:24;95280.50;;;5.71;64.61
6132;BME280;3097;42.692;23.278;2023-02-21T01:59:08;95295.28;;;6.11;63.79
6132;BME280;3097;42.692;23.278;2023-02-21T02:01:59;95243.78;;;5.78;63.82
6132;BME280;3097;42.692;23.278;2023-02-21T02:04:47;95300.00;;;6.08;63.97
6132;BME280;3097;42.692;23.278;2023-02-21T02:07:32;95286.63;;;6.12;63.87
6132;BME280;3097;42.692;23.278;2023-02-21T02:10:16;95269.34;;;6.14;63.54
6132;BME280;3097;42.692;23.278;2023-02-21T02:23:58;95276.72;;;6.52;62.54
6132;BME280;3097;42.692;23.278;2023-02-21T02:35:27;95274.00;;;6.53;62.76
6132;BME280;3097;42.692;23.278;2023-02-21T02:46:24;95265.91;;;6.56;62.66
6132;BME280;3097;42.692;23.278;2023-02-21T02:51:16;95266.06;;;6.48;62.67
6132;BME280;3097;42.692;23.278;2023-02-21T02:53:42;95273.56;;;6.50;63.41
6132;BME280;3097;42.692;23.278;2023-02-21T02:56:11;95255.94;;;6.40;62.98
6132;BME280;3097;42.692;23.278;2023-02-21T02:58:47;95266.66;;;6.50;62.99
6132;BME280;3097;42.692;23.278;2023-02-21T03:07:16;95261.63;;;6.36;63.37
6132;BME280;3097;42.692;23.278;2023-02-21T03:15:32;95254.88;;;6.28;63.29
6132;BME280;3097;42.692;23.278;2023-02-21T03:18:06;95248.19;;;6.06;63.79
6132;BME280;3097;42.692;23.278;2023-02-21T03:20:35;95246.38;;;6.00;64.01
6132;BME280;3097;42.692;23.278;2023-02-21T03:23:03;95250.13;;;6.04;64.27
6132;BME280;3097;42.692;23.278;2023-02-21T03:25:30;95248.97;;;6.28;63.04
6132;BME280;3097;42.692;23.278;2023-02-21T03:27:59;95247.06;;;6.36;62.90
6132;BME280;3097;42.692;23.278;2023-02-21T03:30:27;95241.28;;;6.28;63.30
6132;BME280;3097;42.692;23.278;2023-02-21T03:32:54;95226.81;;;6.13;63.25
6132;BME280;3097;42.692;23.278;2023-02-21T03:35:20;95241.50;;;6.05;64.05
6132;BME280;3097;42.692;23.278;2023-02-21T03:37:49;95236.69;;;5.95;64.40
6132;BME280;3097;42.692;23.278;2023-02-21T03:40:23;95239.44;;;5.79;65.54
6132;BME280;3097;42.692;23.278;2023-02-21T03:42:51;95240.69;;;6.04;64.34
6132;BME280;3097;42.692;23.278;2023-02-21T03:45:17;95191.53;;;5.66;64.78
6132;BME280;3097;42.692;23.278;2023-02-21T03:47:42;95246.06;;;5.88;65.10
6132;BME280;3097;42.692;23.278;2023-02-21T03:50:08;95248.19;;;6.06;64.45
6132;BME280;3097;42.692;23.278;2023-02-21T03:52:33;95255.19;;;5.97;65.00
6132;BME280;3097;42.692;23.278;2023-02-21T03:54:59;95256.44;;;5.87;65.31
6132;BME280;3097;42.692;23.278;2023-02-21T03:57:24;95253.63;;;5.81;65.30
6132;BME280;3097;42.692;23.278;2023-02-21T03:59:50;95250.16;;;5.68;66.08
6132;BME280;3097;42.692;23.278;2023-02-21T04:02:15;95247.31;;;5.77;65.65
6132;BME280;3097;42.692;23.278;2023-02-21T04:04:41;95262.81;;;5.91;65.00
6132;BME280;3097;42.692;23.278;2023-02-21T04:07:08;95258.50;;;5.91;64.75
6132;BME280;3097;42.692;23.278;2023-02-21T04:09:35;95232.19;;;5.61;64.86
6132;BME280;3097;42.692;23.278;2023-02-21T04:12:00;95264.78;;;5.74;65.10
6132;BME280;3097;42.692;23.278;2023-02-21T04:14:26;95258.13;;;5.79;64.83
6132;BME280;3097;42.692;23.278;2023-02-21T04:16:51;95274.50;;;5.78;64.81
6132;BME280;3097;42.692;23.278;2023-02-21T04:19:17;95278.59;;;5.79;64.33
6132;BME280;3097;42.692;23.278;2023-02-21T04:21:42;95287.88;;;5.80;64.68
6132;BME280;3097;42.692;23.278;2023-02-21T04:24:07;95275.34;;;5.86;64.14
6132;BME280;3097;42.692;23.278;2023-02-21T04:26:33;95280.25;;;5.66;64.77
6132;BME280;3097;42.692;23.278;2023-02-21T04:28:59;95295.16;;;5.62;65.21
6132;BME280;3097;42.692;23.278;2023-02-21T04:31:25;95297.09;;;5.60;65.66
6132;BME280;3097;42.692;23.278;2023-02-21T04:33:50;95305.38;;;5.62;65.46
6132;BME280;3097;42.692;23.278;2023-02-21T04:36:16;95290.47;;;5.66;65.10
6132;BME280;3097;42.692;23.278;2023-02-21T04:38:41;95291.19;;;5.60;65.50
6132;BME280;3097;42.692;23.278;2023-02-21T04:41:07;95303.69;;;5.69;64.99
6132;BME280;3097;42.692;23.278;2023-02-21T04:43:32;95305.19;;;5.78;65.05
6132;BME280;3097;42.692;23.278;2023-02-21T04:45:58;95266.09;;;5.49;64.84
6132;BME280;3097;42.692;23.278;2023-02-21T04:48:24;95267.75;;;5.41;65.71
6132;BME280;3097;42.692;23.278;2023-02-21T04:50:50;95291.97;;;5.60;65.61
6132;BME280;3097;42.692;23.278;2023-02-21T04:53:15;95293.34;;;5.77;65.00
6132;BME280;3097;42.692;23.278;2023-02-21T04:55:41;95299.06;;;5.79;64.72
6132;BME280;3097;42.692;23.278;2023-02-21T04:58:06;95275.38;;;5.71;64.76
6132;BME280;3097;42.692;23.278;2023-02-21T05:00:31;95289.53;;;5.52;65.59
6132;BME280;3097;42.692;23.278;2023-02-21T05:02:57;95279.53;;;5.57;65.59
6132;BME280;3097;42.692;23.278;2023-02-21T05:05:22;95272.72;;;5.43;66.11
6132;BME280;3097;42.692;23.278;2023-02-21T05:07:48;95248.03;;;5.35;65.85
6132;BME280;3097;42.692;23.278;2023-02-21T05:10:15;95256.41;;;5.44;66.11
6132;BME280;3097;42.692;23.278;2023-02-21T05:12:40;95235.81;;;5.31;66.23
6132;BME280;3097;42.692;23.278;2023-02-21T05:15:06;95261.66;;;5.57;65.59
6132;BME280;3097;42.692;23.278;2023-02-21T05:17:32;95253.28;;;5.63;65.03
6132;BME280;3097;42.692;23.278;2023-02-21T05:19:58;95234.34;;;5.43;65.47
6132;BME280;3097;42.692;23.278;2023-02-21T05:22:23;95253.50;;;5.47;66.63
6132;BME280;3097;42.692;23.278;2023-02-21T05:24:49;95256.19;;;5.60;66.01
6132;BME280;3097;42.692;23.278;2023-02-21T05:27:16;95242.19;;;5.56;66.12
6132;BME280;3097;42.692;23.278;2023-02-21T05:29:49;95235.03;;;5.52;66.38
6132;BME280;3097;42.692;23.278;2023-02-21T05:32:16;95228.38;;;5.36;66.82
6132;BME280;3097;42.692;23.278;2023-02-21T05:34:42;95224.56;;;5.47;66.53
6132;BME280;3097;42.692;23.278;2023-02-21T05:37:13;95246.56;;;5.62;66.36
6132;BME280;3097;42.692;23.278;2023-02-21T05:39:38;95256.19;;;5.60;66.45
6132;BME280;3097;42.692;23.278;2023-02-21T05:42:04;95250.09;;;5.61;66.43
6132;BME280;3097;42.692;23.278;2023-02-21T05:44:29;95252.28;;;5.64;66.65
6132;BME280;3097;42.692;23.278;2023-02-21T05:46:54;95268.47;;;5.71;65.79
6132;BME280;3097;42.692;23.278;2023-02-21T05:49:20;95256.19;;;5.60;65.45
6132;BME280;3097;42.692;23.278;2023-02-21T05:51:45;95273.75;;;5.84;64.97
6132;BME280;3097;42.692;23.278;2023-02-21T05:54:16;95266.00;;;5.93;65.24
6132;BME280;3097;42.692;23.278;2023-02-21T05:56:43;95267.81;;;5.99;64.71
6132;BME280;3097;42.692;23.278;2023-02-21T05:59:10;95285.22;;;6.10;64.59
6132;BME280;3097;42.692;23.278;2023-02-21T06:01:36;95280.50;;;6.07;63.82
6132;BME280;3097;42.692;23.278;2023-02-21T06:04:02;95283.53;;;5.96;63.85
6132;BME280;3097;42.692;23.278;2023-02-21T06:06:27;95298.56;;;6.27;63.24
6132;BME280;3097;42.692;23.278;2023-02-21T06:08:53;95302.91;;;6.26;62.84
6132;BME280;3097;42.692;23.278;2023-02-21T06:11:37;95292.53;;;6.34;62.56
6132;BME280;3097;42.692;23.278;2023-02-21T06:14:07;95291.25;;;6.45;62.41
6132;BME280;3097;42.692;23.278;2023-02-21T06:16:37;95287.59;;;6.54;61.94
6132;BME280;3097;42.692;23.278;2023-02-21T06:19:04;95299.31;;;6.70;61.39
6132;BME280;3097;42.692;23.278;2023-02-21T06:21:30;95300.13;;;6.77;60.79
6132;BME280;3097;42.692;23.278;2023-02-21T06:23:57;95285.19;;;6.80;60.52
6132;BME280;3097;42.692;23.278;2023-02-21T06:26:22;95293.78;;;6.66;61.25
6132;BME280;3097;42.692;23.278;2023-02-21T06:28:48;95285.91;;;6.68;61.00
6132;BME280;3097;42.692;23.278;2023-02-21T06:31:18;95285.63;;;6.84;60.72
6132;BME280;3097;42.692;23.278;2023-02-21T06:33:44;95278.38;;;6.94;60.02
6132;BME280;3097;42.692;23.278;2023-02-21T06:36:13;95286.06;;;6.94;60.34
6132;BME280;3097;42.692;23.278;2023-02-21T06:38:38;95301.16;;;7.10;60.08
6132;BME280;3097;42.692;23.278;2023-02-21T06:41:05;95303.94;;;7.15;59.82
6132;BME280;3097;42.692;23.278;2023-02-21T06:43:31;95292.53;;;7.24;59.78
6132;BME280;3097;42.692;23.278;2023-02-21T06:45:56;95301.63;;;7.27;59.21
6132;BME280;3097;42.692;23.278;2023-02-21T06:48:22;95297.41;;;7.54;58.53
6132;BME280;3097;42.692;23.278;2023-02-21T06:50:47;95293.88;;;7.61;58.42
6132;BME280;3097;42.692;23.278;2023-02-21T06:53:31;95301.22;;;7.71;58.14
6132;BME280;3097;42.692;23.278;2023-02-21T06:55:57;95303.00;;;7.77;58.18
6132;BME280;3097;42.692;23.278;2023-02-21T06:58:22;95304.97;;;7.75;57.99
6132;BME280;3097;42.692;23.278;2023-02-21T07:00:47;95304.16;;;7.68;58.50
6132;BME280;3097;42.692;23.278;2023-02-21T07:03:13;95288.41;;;7.84;57.80
6132;BME280;3097;42.692;23.278;2023-02-21T07:05:38;95300.09;;;7.93;57.93
6132;BME280;3097;42.692;23.278;2023-02-21T07:08:04;95288.84;;;8.01;57.57
6132;BME280;3097;42.692;23.278;2023-02-21T07:10:29;95299.50;;;8.04;57.18
6132;BME280;3097;42.692;23.278;2023-02-21T07:12:55;95294.81;;;8.14;57.56
6132;BME280;3097;42.692;23.278;2023-02-21T07:15:20;95288.09;;;8.20;57.33
6132;BME280;3097;42.692;23.278;2023-02-21T07:17:46;95290.31;;;8.43;56.04
6132;BME280;3097;42.692;23.278;2023-02-21T07:20:11;95299.59;;;8.57;56.00
6132;BME280;3097;42.692;23.278;2023-02-21T07:22:37;95293.28;;;8.73;55.73
6132;BME280;3097;42.692;23.278;2023-02-21T07:25:02;95292.28;;;8.87;55.84
6132;BME280;3097;42.692;23.278;2023-02-21T07:27:28;95264.88;;;9.25;54.20
6132;BME280;3097;42.692;23.278;2023-02-21T07:29:53;95269.81;;;10.09;52.69
6132;BME280;3097;42.692;23.278;2023-02-21T07:32:19;95275.53;;;10.74;50.42
6132;BME280;3097;42.692;23.278;2023-02-21T07:34:44;95274.09;;;11.88;48.14
6132;BME280;3097;42.692;23.278;2023-02-21T07:37:10;95267.66;;;12.73;45.99
6132;BME280;3097;42.692;23.278;2023-02-21T07:39:36;95261.91;;;13.18;44.58
6132;BME280;3097;42.692;23.278;2023-02-21T07:42:03;95254.22;;;14.03;43.36
6132;BME280;3097;42.692;23.278;2023-02-21T07:44:29;95245.16;;;15.88;40.09
6132;BME280;3097;42.692;23.278;2023-02-21T07:46:55;95242.53;;;17.16;36.22
6132;BME280;3097;42.692;23.278;2023-02-21T07:49:21;95245.22;;;17.31;36.06
6132;BME280;3097;42.692;23.278;2023-02-21T07:51:47;95246.75;;;16.80;35.54
6132;BME280;3097;42.692;23.278;2023-02-21T07:54:12;95223.72;;;16.30;36.74
6132;BME280;3097;42.692;23.278;2023-02-21T07:56:45;95231.28;;;16.04;36.90
6132;BME280;3097;42.692;23.278;2023-02-21T07:59:11;95228.44;;;15.57;37.94
6132;BME280;3097;42.692;23.278;2023-02-21T08:01:36;95231.34;;;15.17;38.85
6132;BME280;3097;42.692;23.278;2023-02-21T08:04:02;95241.16;;;14.60;39.70
6132;BME280;3097;42.692;23.278;2023-02-21T08:06:27;95235.84;;;14.21;40.61
6132;BME280;3097;42.692;23.278;2023-02-21T08:08:53;95241.38;;;13.80;41.08
6132;BME280;3097;42.692;23.278;2023-02-21T08:11:18;95224.41;;;13.09;42.76
6132;BME280;3097;42.692;23.278;2023-02-21T08:13:44;95247.63;;;12.57;44.19
6132;BME280;3097;42.692;23.278;2023-02-21T08:16:09;95236.69;;;12.44;44.98
6132;BME280;3097;42.692;23.278;2023-02-21T08:18:34;95237.03;;;12.24;45.12
6132;BME280;3097;42.692;23.278;2023-02-21T08:21:00;95229.22;;;12.00;45.85
6132;BME280;3097;42.692;23.278;2023-02-21T08:23:25;95243.34;;;11.98;46.24
6132;BME280;3097;42.692;23.278;2023-02-21T08:25:51;95237.91;;;11.88;46.02
6132;BME280;3097;42.692;23.278;2023-02-21T08:28:16;95241.88;;;11.90;45.99
6132;BME280;3097;42.692;23.278;2023-02-21T08:30:42;95231.63;;;11.84;46.38
6132;BME280;3097;42.692;23.278;2023-02-21T08:33:07;95235.44;;;11.81;47.02
6132;BME280;3097;42.692;23.278;2023-02-21T08:35:33;95230.53;;;11.91;47.15
6132;BME280;3097;42.692;23.278;2023-02-21T08:37:59;95222.25;;;12.01;47.10
6132;BME280;3097;42.692;23.278;2023-02-21T08:40:30;95229.50;;;12.22;46.07
6132;BME280;3097;42.692;23.278;2023-02-21T08:42:57;95237.28;;;11.92;46.44
6132;BME280;3097;42.692;23.278;2023-02-21T08:45:24;95222.19;;;12.31;46.65
6132;BME280;3097;42.692;23.278;2023-02-21T08:47:51;95202.16;;;12.26;45.53
6132;BME280;3097;42.692;23.278;2023-02-21T08:50:18;95218.81;;;12.42;46.00
6132;BME280;3097;42.692;23.278;2023-02-21T08:52:47;95223.81;;;12.55;46.09
6132;BME280;3097;42.692;23.278;2023-02-21T08:55:13;95216.94;;;12.61;45.19
6132;BME280;3097;42.692;23.278;2023-02-21T08:57:39;95220.66;;;12.76;44.87
6132;BME280;3097;42.692;23.278;2023-02-21T09:00:06;95198.94;;;12.77;44.14
6132;BME280;3097;42.692;23.278;2023-02-21T09:02:36;95207.81;;;12.58;44.76
6132;BME280;3097;42.692;23.278;2023-02-21T09:05:13;95183.09;;;12.51;45.00
6132;BME280;3097;42.692;23.278;2023-02-21T09:07:40;95218.25;;;12.87;45.04
6132;BME280;3097;42.692;23.278;2023-02-21T09:10:06;95193.88;;;12.83;44.69
6132;BME280;3097;42.692;23.278;2023-02-21T09:12:34;95212.63;;;12.78;44.74
6132;BME280;3097;42.692;23.278;2023-02-21T09:14:59;95187.66;;;12.95;44.60
6132;BME280;3097;42.692;23.278;2023-02-21T09:17:25;95186.84;;;13.30;44.31
6132;BME280;3097;42.692;23.278;2023-02-21T09:19:50;95203.97;;;13.76;43.21
6132;BME280;3097;42.692;23.278;2023-02-21T09:22:16;95203.75;;;14.06;42.29
6132;BME280;3097;42.692;23.278;2023-02-21T09:24:42;95192.03;;;14.20;41.80
6132;BME280;3097;42.692;23.278;2023-02-21T09:27:08;95189.41;;;14.37;42.80
6132;BME280;3097;42.692;23.278;2023-02-21T09:29:35;95187.19;;;14.57;43.46
6132;BME280;3097;42.692;23.278;2023-02-21T09:32:02;95115.78;;;14.38;42.44
6132;BME280;3097;42.692;23.278;2023-02-21T09:34:28;95196.06;;;14.99;41.78
6132;BME280;3097;42.692;23.278;2023-02-21T09:36:54;95184.41;;;15.24;42.42
6132;BME280;3097;42.692;23.278;2023-02-21T09:39:21;95175.81;;;15.45;40.80
6132;BME280;3097;42.692;23.278;2023-02-21T09:41:47;95174.97;;;15.61;40.60
6132;BME280;3097;42.692;23.278;2023-02-21T09:44:16;95168.91;;;15.77;40.46
6132;BME280;3097;42.692;23.278;2023-02-21T09:46:49;95170.47;;;15.78;39.89
6132;BME280;3097;42.692;23.278;2023-02-21T09:49:28;95170.78;;;15.87;40.04
6132;BME280;3097;42.692;23.278;2023-02-21T09:51:55;95164.94;;;16.02;39.68
6132;BME280;3097;42.692;23.278;2023-02-21T09:54:24;95153.28;;;16.09;38.75
6132;BME280;3097;42.692;23.278;2023-02-21T09:56:50;95158.25;;;16.11;38.04
6132;BME280;3097;42.692;23.278;2023-02-21T09:59:15;95154.97;;;16.25;38.74
6132;BME280;3097;42.692;23.278;2023-02-21T10:07:07;95098.09;;;16.39;35.51
6132;BME280;3097;42.692;23.278;2023-02-21T10:12:26;95127.97;;;16.69;34.67
6132;BME280;3097;42.692;23.278;2023-02-21T10:20:15;95119.72;;;16.82;31.37
6132;BME280;3097;42.692;23.278;2023-02-21T10:22:47;95112.44;;;16.89;31.05
6132;BME280;3097;42.692;23.278;2023-02-21T10:25:29;95111.41;;;16.95;30.82
6132;BME280;3097;42.692;23.278;2023-02-21T10:27:56;95109.34;;;16.97;30.74
6132;BME280;3097;42.692;23.278;2023-02-21T10:30:31;95111.47;;;17.10;30.31
6132;BME280;3097;42.692;23.278;2023-02-21T10:32:56;95104.44;;;17.11;29.40
6132;BME280;3097;42.692;23.278;2023-02-21T10:35:22;95007.38;;;16.58;29.82
6132;BME280;3097;42.692;23.278;2023-02-21T10:37:57;95085.44;;;17.15;28.97
6132;BME280;3097;42.692;23.278;2023-02-21T10:40:44;95086.47;;;17.14;28.34
6132;BME280;3097;42.692;23.278;2023-02-21T10:43:18;95094.03;;;17.16;29.22
6132;BME280;3097;42.692;23.278;2023-02-21T10:48:34;95077.63;;;17.15;29.04
6132;BME280;3097;42.692;23.278;2023-02-21T10:53:34;95070.09;;;17.14;28.69
6132;BME280;3097;42.692;23.278;2023-02-21T11:01:30;95051.06;;;17.13;29.58
6132;BME280;3097;42.692;23.278;2023-02-21T11:06:46;95043.47;;;17.07;29.52
6132;BME280;3097;42.692;23.278;2023-02-21T11:15:09;95036.75;;;17.26;28.53
6132;BME280;3097;42.692;23.278;2023-02-21T11:17:41;95029.19;;;17.24;28.51
6132;BME280;3097;42.692;23.278;2023-02-21T11:22:40;95016.94;;;17.20;28.26
6132;BME280;3097;42.692;23.278;2023-02-21T11:25:23;94996.31;;;17.08;27.46
6132;BME280;3097;42.692;23.278;2023-02-21T11:30:41;95017.72;;;17.20;28.17
6132;BME280;3097;42.692;23.278;2023-02-21T11:33:10;95009.88;;;17.10;28.70
6132;BME280;3097;42.692;23.278;2023-02-21T11:35:43;95011.22;;;17.28;28.15
6132;BME280;3097;42.692;23.278;2023-02-21T11:38:30;95009.91;;;17.30;28.65
6132;BME280;3097;42.692;23.278;2023-02-21T11:41:01;94995.56;;;17.18;29.26
6132;BME280;3097;42.692;23.278;2023-02-21T11:43:31;95001.31;;;17.30;29.17
6132;BME280;3097;42.692;23.278;2023-02-21T11:46:16;94989.06;;;17.30;28.32
6132;BME280;3097;42.692;23.278;2023-02-21T11:49:05;95005.75;;;17.34;28.88
6132;BME280;3097;42.692;23.278;2023-02-21T11:51:32;94989.06;;;17.30;29.13
6132;BME280;3097;42.692;23.278;2023-02-21T11:54:00;94949.72;;;17.12;29.37
6132;BME280;3097;42.692;23.278;2023-02-21T12:04:51;94959.38;;;17.36;29.46
6132;BME280;3097;42.692;23.278;2023-02-21T12:07:37;94958.31;;;17.37;29.71
6132;BME280;3097;42.692;23.278;2023-02-21T12:25:01;94927.56;;;17.45;29.96
6132;BME280;3097;42.692;23.278;2023-02-21T12:27:32;94919.25;;;17.42;30.02
6132;BME280;3097;42.692;23.278;2023-02-21T12:33:17;94916.59;;;17.58;29.39
6132;BME280;3097;42.692;23.278;2023-02-21T12:38:52;94910.88;;;17.71;29.96
6132;BME280;3097;42.692;23.278;2023-02-21T12:43:52;94900.91;;;17.83;29.39
6132;BME280;3097;42.692;23.278;2023-02-21T12:46:37;94901.19;;;17.76;29.71
6132;BME280;3097;42.692;23.278;2023-02-21T12:51:56;94861.38;;;17.51;30.16
6132;BME280;3097;42.692;23.278;2023-02-21T12:54:39;94893.13;;;17.68;30.33
6132;BME280;3097;42.692;23.278;2023-02-21T12:57:13;94893.66;;;17.60;30.07
6132;BME280;3097;42.692;23.278;2023-02-21T13:05:43;94890.53;;;17.58;30.31
6132;BME280;3097;42.692;23.278;2023-02-21T13:08:18;94891.59;;;17.57;30.11
6132;BME280;3097;42.692;23.278;2023-02-21T13:10:57;94870.22;;;17.45;30.52
6132;BME280;3097;42.692;23.278;2023-02-21T13:13:29;94888.97;;;17.57;30.24
6132;BME280;3097;42.692;23.278;2023-02-21T13:16:04;94879.06;;;17.59;30.10
6132;BME280;3097;42.692;23.278;2023-02-21T13:18:39;94885.88;;;17.65;29.68
6132;BME280;3097;42.692;23.278;2023-02-21T13:30:13;94869.38;;;17.85;28.98
6132;BME280;3097;42.692;23.278;2023-02-21T13:32:54;94851.94;;;17.70;29.23
6132;BME280;3097;42.692;23.278;2023-02-21T13:35:27;94872.50;;;17.87;29.05
6132;BME280;3097;42.692;23.278;2023-02-21T13:37:54;94843.88;;;17.71;29.53
6132;BME280;3097;42.692;23.278;2023-02-21T13:40:35;94835.78;;;17.73;28.61
6132;BME280;3097;42.692;23.278;2023-02-21T13:45:47;94848.53;;;17.79;29.22
6132;BME280;3097;42.692;23.278;2023-02-21T13:48:21;94838.03;;;17.95;28.92
6132;BME280;3097;42.692;23.278;2023-02-21T13:50:50;94845.88;;;17.90;28.93
6132;BME280;3097;42.692;23.278;2023-02-21T14:00:55;94805.19;;;17.94;28.41
6132;BME280;3097;42.692;23.278;2023-02-21T14:10:50;94834.59;;;18.09;29.13
6132;BME280;3097;42.692;23.278;2023-02-21T14:13:35;94836.22;;;17.90;28.47
6132;BME280;3097;42.692;23.278;2023-02-21T14:21:14;94838.19;;;18.18;28.01
6132;BME280;3097;42.692;23.278;2023-02-21T14:37:37;94824.38;;;18.13;27.08
6132;BME280;3097;42.692;23.278;2023-02-21T14:42:48;94831.53;;;17.92;27.31
6132;BME280;3097;42.692;23.278;2023-02-21T15:01:45;94822.44;;;17.85;27.28
6132;BME280;3097;42.692;23.278;2023-02-21T15:09:36;94824.25;;;17.89;26.57
6132;BME280;3097;42.692;23.278;2023-02-21T15:12:07;94816.22;;;17.70;27.10
6132;BME280;3097;42.692;23.278;2023-02-21T15:14:40;94808.72;;;17.49;27.45
6132;BME280;3097;42.692;23.278;2023-02-21T15:17:23;94826.66;;;17.60;27.43
6132;BME280;3097;42.692;23.278;2023-02-21T15:20:08;94826.38;;;17.77;27.52
6132;BME280;3097;42.692;23.278;2023-02-21T15:22:37;94823.81;;;17.52;27.94
6132;BME280;3097;42.692;23.278;2023-02-21T15:27:36;94823.28;;;17.65;27.73
6132;BME280;3097;42.692;23.278;2023-02-21T15:30:12;94826.69;;;17.50;28.03
6132;BME280;3097;42.692;23.278;2023-02-21T15:32:38;94827.19;;;17.57;27.72
6132;BME280;3097;42.692;23.278;2023-02-21T15:35:05;94830.28;;;17.59;27.92
6132;BME280;3097;42.692;23.278;2023-02-21T15:37:36;94845.94;;;17.59;27.62
6132;BME280;3097;42.692;23.278;2023-02-21T15:40:11;94836.84;;;17.47;27.74
6132;BME280;3097;42.692;23.278;2023-02-21T15:42:39;94842.09;;;17.31;28.29
6132;BME280;3097;42.692;23.278;2023-02-21T15:45:15;94841.59;;;17.24;28.50
6132;BME280;3097;42.692;23.278;2023-02-21T15:47:42;94825.72;;;17.00;28.68
6132;BME280;3097;42.692;23.278;2023-02-21T15:50:42;94848.91;;;17.02;28.81
6132;BME280;3097;42.692;23.278;2023-02-21T15:53:28;94846.84;;;16.94;29.10
6132;BME280;3097;42.692;23.278;2023-02-21T15:55:53;94847.34;;;16.86;29.24
6132;BME280;3097;42.692;23.278;2023-02-21T15:58:39;94849.94;;;16.66;29.49
6132;BME280;3097;42.692;23.278;2023-02-21T16:01:07;94845.00;;;16.69;29.27
6132;BME280;3097;42.692;23.278;2023-02-21T16:03:36;94851.25;;;16.63;29.69
6132;BME280;3097;42.692;23.278;2023-02-21T16:06:18;94857.69;;;16.30;29.95
6132;BME280;3097;42.692;23.278;2023-02-21T16:11:24;94855.09;;;16.40;29.91
6132;BME280;3097;42.692;23.278;2023-02-21T16:13:50;94860.53;;;16.34;29.94
6132;BME280;3097;42.692;23.278;2023-02-21T16:16:15;94857.94;;;16.29;33.60
6132;BME280;3097;42.692;23.278;2023-02-21T16:18:41;94850.56;;;16.00;32.89
6132;BME280;3097;42.692;23.278;2023-02-21T16:21:21;94871.03;;;15.86;31.84
6132;BME280;3097;42.692;23.278;2023-02-21T16:23:47;94853.31;;;15.73;31.31
6132;BME280;3097;42.692;23.278;2023-02-21T16:28:39;94876.88;;;15.57;31.71
6132;BME280;3097;42.692;23.278;2023-02-21T16:31:06;94881.47;;;15.44;32.04
6132;BME280;3097;42.692;23.278;2023-02-21T16:33:33;94882.44;;;15.33;32.34
6132;BME280;3097;42.692;23.278;2023-02-21T16:36:04;94843.53;;;15.01;32.15
6132;BME280;3097;42.692;23.278;2023-02-21T16:38:30;94880.50;;;15.19;32.28
6132;BME280;3097;42.692;23.278;2023-02-21T16:40:56;94873.69;;;15.07;32.00
6132;BME280;3097;42.692;23.278;2023-02-21T16:43:24;94874.94;;;15.05;31.91
6132;BME280;3097;42.692;23.278;2023-02-21T16:45:53;94881.38;;;14.97;31.75
6132;BME280;3097;42.692;23.278;2023-02-21T16:48:25;94878.28;;;14.95;31.42
6132;BME280;3097;42.692;23.278;2023-02-21T16:50:53;94889.09;;;14.87;31.49
6132;BME280;3097;42.692;23.278;2023-02-21T16:53:20;94896.59;;;14.84;31.26
6132;BME280;3097;42.692;23.278;2023-02-21T16:55:47;94877.06;;;14.76;31.55
6132;BME280;3097;42.692;23.278;2023-02-21T17:00:45;94888.97;;;14.72;31.51
6132;BME280;3097;42.692;23.278;2023-02-21T17:03:11;94886.59;;;14.65;31.89